createdAt,value
2023-05-09T00:01:33.430Z,95100.91
2023-05-09T00:03:59.910Z,95095.16
2023-05-09T00:06:27.415Z,95092.31
2023-05-09T00:08:53.820Z,95093.16
2023-05-09T00:11:20.381Z,95085.19
2023-05-09T00:13:46.853Z,95081.91
2023-05-09T00:16:13.252Z,95081.63
2023-05-09T00:18:39.675Z,95076.59
2023-05-09T00:21:06.046Z,95079.00
2023-05-09T00:23:32.751Z,95074.69
2023-05-09T00:25:59.119Z,95072.03
2023-05-09T00:28:25.479Z,95077.72
2023-05-09T00:30:51.920Z,95070.31
2023-05-09T00:33:18.268Z,95065.38
2023-05-09T00:35:44.614Z,95067.38
2023-05-09T00:38:11.376Z,95067.56
2023-05-09T00:40:37.771Z,95060.63
2023-05-09T00:43:04.110Z,95058.78
2023-05-09T00:45:30.810Z,95060.63
2023-05-09T00:47:57.200Z,95058.63
2023-05-09T00:50:23.566Z,95061.78
2023-05-09T00:52:50.151Z,95064.63
2023-05-09T00:55:17.773Z,95070.66
2023-05-09T00:57:44.503Z,95068.19
2023-05-09T01:00:12.457Z,95061.69
2023-05-09T01:02:38.891Z,95059.03
2023-05-09T01:05:05.281Z,95061.69
2023-05-09T01:07:36.107Z,95052.31
2023-05-09T01:10:04.940Z,95053.66
2023-05-09T01:12:31.721Z,95049.19
2023-05-09T01:14:59.184Z,95033.28
2023-05-09T01:17:25.671Z,95033.84
2023-05-09T01:19:54.416Z,95024.31
2023-05-09T01:22:20.773Z,95035.44
2023-05-09T01:24:47.102Z,95031.13
2023-05-09T01:27:13.434Z,95021.09
2023-05-09T01:29:39.785Z,95020.00
2023-05-09T01:32:06.453Z,95034.59
2023-05-09T01:34:35.011Z,95031.66
2023-05-09T01:37:01.572Z,95040.97
2023-05-09T01:39:28.178Z,95039.69
2023-05-09T01:41:54.799Z,95032.72
2023-05-09T01:44:22.158Z,95031.09
2023-05-09T01:46:48.763Z,95021.69
2023-05-09T01:49:15.168Z,95013.56
2023-05-09T01:51:43.777Z,95024.78
2023-05-09T01:54:10.485Z,95022.13
2023-05-09T01:56:37.871Z,95023.69
2023-05-09T01:59:04.801Z,95021.28
2023-05-09T02:01:33.413Z,95025.28
2023-05-09T02:04:00.018Z,95024.72
2023-05-09T02:06:27.173Z,95028.03
2023-05-09T02:08:56.631Z,95021.75
2023-05-09T02:11:23.181Z,95024.84
2023-05-09T02:13:51.746Z,95023.88
2023-05-09T02:16:19.472Z,95021.75
2023-05-09T02:18:46.910Z,95018.28
2023-05-09T02:21:13.284Z,95022.41
2023-05-09T02:23:39.746Z,95016.66
2023-05-09T02:26:06.375Z,95015.69
2023-05-09T02:28:33.115Z,95011.56
2023-05-09T02:31:01.902Z,95008.13
2023-05-09T02:33:28.684Z,95012.59
2023-05-09T02:35:55.604Z,95004.28
2023-05-09T02:38:22.331Z,95008.06
2023-05-09T02:40:49.878Z,95000.59
2023-05-09T02:43:18.045Z,95001.41
2023-05-09T02:45:44.962Z,95002.22
2023-05-09T02:48:11.354Z,95005.56
2023-05-09T02:50:45.384Z,95009.94
2023-05-09T02:53:11.728Z,95009.88
2023-05-09T02:55:39.123Z,95017.81
2023-05-09T02:58:14.209Z,95016.28
2023-05-09T03:00:43.771Z,95016.88
2023-05-09T03:03:12.423Z,95015.13
2023-05-09T03:05:38.919Z,95005.94
2023-05-09T03:08:05.325Z,95014.53
2023-05-09T03:10:31.661Z,95013.22
2023-05-09T03:12:58.139Z,95011.25
2023-05-09T03:15:26.698Z,95012.19
2023-05-09T03:17:53.113Z,95008.19
2023-05-09T03:20:19.679Z,95004.19
2023-05-09T03:22:46.366Z,95007.88
2023-05-09T03:25:13.022Z,95001.63
2023-05-09T03:27:39.616Z,95005.63
2023-05-09T03:30:05.992Z,95002.47
2023-05-09T03:32:33.383Z,95001.09
2023-05-09T03:34:59.958Z,94999.09
2023-05-09T03:37:27.439Z,94998.91
2023-05-09T03:39:53.795Z,95000.59
2023-05-09T03:42:20.516Z,95000.78
2023-05-09T03:44:49.894Z,95006.41
2023-05-09T03:47:16.231Z,94998.84
2023-05-09T03:49:42.649Z,94991.53
2023-05-09T03:52:09.118Z,94994.00
2023-05-09T03:54:35.498Z,94994.19
2023-05-09T03:57:01.838Z,94985.41
2023-05-09T03:59:28.300Z,94986.06
2023-05-09T04:01:55.148Z,94976.97
2023-05-09T04:04:22.203Z,94982.06
2023-05-09T04:06:49.237Z,94991.53
2023-05-09T04:09:18.239Z,94980.59
2023-05-09T04:11:45.687Z,94969.66
2023-05-09T04:14:12.080Z,94974.38
2023-05-09T04:16:40.822Z,94961.81
2023-05-09T04:19:07.279Z,94969.22
2023-05-09T04:21:33.654Z,94961.28
2023-05-09T04:24:02.155Z,94970.69
2023-05-09T04:26:31.174Z,94966.84
2023-05-09T04:28:57.862Z,94965.66
2023-05-09T04:31:24.374Z,94967.22
2023-05-09T04:33:50.751Z,94965.47
2023-05-09T04:36:17.121Z,94976.25
2023-05-09T04:38:46.129Z,94966.00
2023-05-09T04:41:12.923Z,94962.72
2023-05-09T04:43:41.708Z,94980.16
2023-05-09T04:46:08.291Z,94974.69
2023-05-09T04:48:34.856Z,94970.22
2023-05-09T04:51:01.258Z,94972.56
2023-05-09T04:53:27.675Z,94983.88
2023-05-09T04:55:54.072Z,94979.59
2023-05-09T04:58:20.467Z,94978.13
2023-05-09T05:00:52.125Z,94981.31
2023-05-09T05:03:18.496Z,94985.94
2023-05-09T05:05:45.044Z,94972.66
2023-05-09T05:08:11.608Z,94970.13
2023-05-09T05:10:38.340Z,94973.66
2023-05-09T05:13:04.841Z,94980.63
2023-05-09T05:15:31.347Z,94963.13
2023-05-09T05:17:58.721Z,94956.38
2023-05-09T05:20:25.263Z,94955.78
2023-05-09T05:22:51.645Z,94962.69
2023-05-09T05:25:18.035Z,94965.25
2023-05-09T05:27:44.600Z,94974.19
2023-05-09T05:30:11.126Z,94969.91
2023-05-09T05:32:37.522Z,94963.88
2023-05-09T05:35:04.080Z,94972.34
2023-05-09T05:37:30.595Z,94971.13
2023-05-09T05:39:57.238Z,94968.22
2023-05-09T05:42:24.254Z,94962.25
2023-05-09T05:44:50.814Z,94955.31
2023-05-09T05:47:17.193Z,94949.59
2023-05-09T05:49:46.276Z,94942.69
2023-05-09T05:52:12.919Z,94943.47
2023-05-09T05:54:39.330Z,94946.84
2023-05-09T05:57:05.892Z,94942.56
2023-05-09T05:59:32.265Z,94936.59
2023-05-09T06:01:58.645Z,94932.59
2023-05-09T06:04:27.203Z,94928.16
2023-05-09T06:06:53.716Z,94931.56
2023-05-09T06:09:22.535Z,94926.13
2023-05-09T06:11:48.973Z,94929.25
2023-05-09T06:14:15.734Z,94914.44
2023-05-09T06:16:42.317Z,94918.97
2023-05-09T06:19:09.021Z,94917.47
2023-05-09T06:21:35.420Z,94923.69
2023-05-09T06:24:08.493Z,94920.44
2023-05-09T06:26:40.227Z,94922.16
2023-05-09T06:29:08.655Z,94917.34
2023-05-09T06:31:35.097Z,94908.97
2023-05-09T06:34:05.986Z,94909.88
2023-05-09T06:36:32.415Z,94911.94
2023-05-09T06:38:59.203Z,94904.00
2023-05-09T06:41:25.584Z,94907.25
2023-05-09T06:43:51.972Z,94901.47
2023-05-09T06:46:19.617Z,94889.19
2023-05-09T06:48:46.433Z,94906.38
2023-05-09T06:51:14.476Z,94896.59
2023-05-09T06:53:41.881Z,94886.19
2023-05-09T06:56:08.453Z,94879.88
2023-05-09T06:58:35.170Z,94876.41
2023-05-09T07:01:01.527Z,94877.03
2023-05-09T07:03:30.947Z,94869.66
2023-05-09T07:05:59.590Z,94872.94
2023-05-09T07:08:26.261Z,94861.06
2023-05-09T07:10:53.702Z,94853.50
2023-05-09T07:13:22.462Z,94856.16
2023-05-09T07:15:49.250Z,94864.75
2023-05-09T07:18:18.479Z,94849.19
2023-05-09T07:20:45.380Z,94848.53
2023-05-09T07:23:14.054Z,94851.41
2023-05-09T07:25:40.419Z,94849.16
2023-05-09T07:28:06.807Z,94844.19
2023-05-09T07:30:33.404Z,94840.13
2023-05-09T07:32:59.894Z,94836.81
2023-05-09T07:35:28.792Z,94835.97
2023-05-09T07:37:55.297Z,94832.91
2023-05-09T07:40:21.692Z,94831.09
2023-05-09T07:42:52.805Z,94823.09
2023-05-09T07:45:21.226Z,94828.94
2023-05-09T07:47:56.781Z,94821.88
2023-05-09T07:50:23.321Z,94817.66
2023-05-09T07:52:57.473Z,94809.75
2023-05-09T07:55:24.206Z,94810.19
2023-05-09T07:57:52.666Z,94807.16
2023-05-09T08:00:19.160Z,94805.47
2023-05-09T08:02:45.836Z,94808.06
2023-05-09T08:05:12.683Z,94799.56
2023-05-09T08:07:42.308Z,94789.56
2023-05-09T08:10:08.938Z,94789.84
2023-05-09T08:12:36.323Z,94785.88
2023-05-09T08:15:02.714Z,94789.28
2023-05-09T08:17:30.483Z,94787.34
2023-05-09T08:19:59.156Z,94780.47
2023-05-09T08:22:28.163Z,94766.31
2023-05-09T08:24:54.834Z,94769.06
2023-05-09T08:27:21.180Z,94760.13
2023-05-09T08:29:47.546Z,94756.28
2023-05-09T08:32:14.074Z,94768.88
2023-05-09T08:34:40.797Z,94764.44
2023-05-09T08:37:07.205Z,94760.84
2023-05-09T08:39:34.612Z,94748.53
2023-05-09T08:42:01.021Z,94753.06
2023-05-09T08:44:34.822Z,94758.19
2023-05-09T08:47:01.353Z,94748.97
2023-05-09T08:49:27.868Z,94746.06
2023-05-09T08:51:54.554Z,94743.41
2023-05-09T08:54:22.770Z,94738.47
2023-05-09T08:56:49.316Z,94727.97
2023-05-09T08:59:16.316Z,94723.81
2023-05-09T09:01:43.342Z,94724.53
2023-05-09T09:04:11.051Z,94722.78
2023-05-09T09:06:37.420Z,94714.34
2023-05-09T09:09:03.759Z,94705.41
2023-05-09T09:11:31.156Z,94702.50
2023-05-09T09:13:57.709Z,94708.50
2023-05-09T09:16:24.102Z,94701.75
2023-05-09T09:18:50.511Z,94698.84
2023-05-09T09:21:16.929Z,94703.13
2023-05-09T09:23:44.452Z,94699.03
2023-05-09T09:26:10.840Z,94698.09
2023-05-09T09:28:37.527Z,94690.19
2023-05-09T09:31:03.963Z,94692.50
2023-05-09T09:33:30.650Z,94678.50
2023-05-09T09:35:57.151Z,94686.16
2023-05-09T09:38:23.818Z,94678.78
2023-05-09T09:40:52.309Z,94681.81
2023-05-09T09:43:19.004Z,94672.41
2023-05-09T09:45:45.611Z,94670.19
2023-05-09T09:48:12.313Z,94671.97
2023-05-09T09:50:38.945Z,94664.47
2023-05-09T09:53:05.331Z,94658.31
2023-05-09T09:55:34.751Z,94655.22
2023-05-09T09:58:04.099Z,94657.50
2023-05-09T10:00:31.506Z,94653.44
2023-05-09T10:02:58.009Z,94645.00
2023-05-09T10:05:24.398Z,94648.38
2023-05-09T10:07:50.845Z,94633.09
2023-05-09T10:10:17.864Z,94635.84
2023-05-09T10:12:45.706Z,94629.19
2023-05-09T10:15:12.098Z,94632.94
2023-05-09T10:17:39.591Z,94624.41
2023-05-09T10:20:06.185Z,94625.19
2023-05-09T10:22:35.498Z,94621.56
2023-05-09T10:25:01.833Z,94625.41
2023-05-09T10:27:28.238Z,94622.38
2023-05-09T10:29:54.724Z,94613.13
2023-05-09T10:32:23.509Z,94614.88
2023-05-09T10:34:52.390Z,94606.25
2023-05-09T10:37:18.970Z,94609.38
2023-05-09T10:39:46.268Z,94604.34
2023-05-09T10:44:53.374Z,94587.81
2023-05-09T10:47:20.390Z,94588.84
2023-05-09T10:52:28.959Z,94579.75
2023-05-09T10:54:55.385Z,94579.50
2023-05-09T10:57:24.151Z,94578.38
2023-05-09T10:59:50.856Z,94576.69
2023-05-09T11:02:20.413Z,94568.00
2023-05-09T11:04:46.809Z,94566.16
2023-05-09T11:07:13.155Z,94563.38
2023-05-09T11:09:42.954Z,94558.72
2023-05-09T11:12:09.731Z,94556.66
2023-05-09T11:14:36.209Z,94542.72
2023-05-09T11:17:05.934Z,94542.03
2023-05-09T11:19:33.392Z,94542.25
2023-05-09T11:22:02.596Z,94537.88
2023-05-09T11:24:29.099Z,94537.66
2023-05-09T11:26:55.732Z,94535.78
2023-05-09T11:29:22.426Z,94529.84
2023-05-09T11:31:54.761Z,94527.09
2023-05-09T11:34:21.308Z,94526.66
2023-05-09T11:36:47.950Z,94527.66
2023-05-09T11:39:14.357Z,94523.50
2023-05-09T11:41:42.845Z,94516.91
2023-05-09T11:44:09.261Z,94516.00
2023-05-09T11:46:38.048Z,94509.84
2023-05-09T11:49:04.431Z,94517.88
2023-05-09T11:51:35.963Z,94518.72
2023-05-09T11:54:02.554Z,94514.56
2023-05-09T11:56:31.297Z,94508.78
2023-05-09T11:58:58.998Z,94504.91
2023-05-09T12:01:25.396Z,94509.16
2023-05-09T12:03:51.846Z,94508.72
2023-05-09T12:06:20.618Z,94502.56
2023-05-09T12:08:48.335Z,94506.81
2023-05-09T12:11:15.853Z,94501.00
2023-05-09T12:13:42.590Z,94505.38
2023-05-09T12:16:09.477Z,94496.75
2023-05-09T12:18:39.225Z,94497.06
2023-05-09T12:21:06.350Z,94488.22
2023-05-09T12:23:32.941Z,94482.84
2023-05-09T12:26:02.194Z,94487.56
2023-05-09T12:28:28.576Z,94484.88
2023-05-09T12:30:55.062Z,94487.38
2023-05-09T12:33:21.436Z,94477.97
2023-05-09T12:35:48.409Z,94486.13
2023-05-09T12:38:15.133Z,94480.53
2023-05-09T12:40:42.133Z,94481.66
2023-05-09T12:43:08.804Z,94478.03
2023-05-09T12:45:35.237Z,94480.50
2023-05-09T12:48:01.717Z,94475.66
2023-05-09T12:50:28.327Z,94472.06
2023-05-09T12:53:02.635Z,94465.06
2023-05-09T12:55:33.137Z,94457.91
2023-05-09T12:57:59.552Z,94457.03
2023-05-09T13:00:25.982Z,94457.72
2023-05-09T13:02:54.905Z,94459.31
2023-05-09T13:05:21.595Z,94450.50
2023-05-09T13:07:47.985Z,94442.88
2023-05-09T13:10:14.454Z,94436.13
2023-05-09T13:12:41.012Z,94438.25
2023-05-09T13:15:09.615Z,94435.97
2023-05-09T13:17:35.986Z,94442.47
2023-05-09T13:20:02.346Z,94441.00
2023-05-09T13:22:30.999Z,94440.38
2023-05-09T13:24:57.386Z,94429.47
2023-05-09T13:27:26.142Z,94433.00
2023-05-09T13:29:53.630Z,94435.28
2023-05-09T13:32:21.375Z,94435.53
2023-05-09T13:34:51.956Z,94436.78
2023-05-09T13:37:18.418Z,94424.91
2023-05-09T13:39:45.341Z,94429.69
2023-05-09T13:42:11.768Z,94427.34
2023-05-09T13:44:38.502Z,94423.53
2023-05-09T13:47:05.097Z,94422.72
2023-05-09T13:49:31.543Z,94427.78
2023-05-09T13:51:59.605Z,94426.22
2023-05-09T13:54:27.038Z,94424.50
2023-05-09T13:56:53.878Z,94428.84
2023-05-09T13:59:21.647Z,94429.97
2023-05-09T14:01:48.092Z,94421.34
2023-05-09T14:04:15.064Z,94423.47
2023-05-09T14:06:41.673Z,94425.69
2023-05-09T14:09:08.677Z,94430.63
2023-05-09T14:11:35.286Z,94434.94
2023-05-09T14:14:01.778Z,94434.25
2023-05-09T14:16:29.316Z,94442.41
2023-05-09T14:18:55.956Z,94442.41
2023-05-09T14:21:22.355Z,94440.69
2023-05-09T14:23:48.698Z,94438.94
2023-05-09T14:26:15.042Z,94439.97
2023-05-09T14:28:41.492Z,94438.22
2023-05-09T14:31:08.144Z,94438.25
2023-05-09T14:33:36.850Z,94434.03
2023-05-09T14:36:03.341Z,94427.06
2023-05-09T14:38:30.720Z,94429.41
2023-05-09T14:40:57.495Z,94422.31
2023-05-09T14:43:27.632Z,94426.78
2023-05-09T14:45:54.585Z,94422.81
2023-05-09T14:48:28.392Z,94422.00
2023-05-09T14:50:55.000Z,94419.81
2023-05-09T14:53:21.359Z,94417.25
2023-05-09T14:55:48.062Z,94414.19
2023-05-09T14:58:14.524Z,94416.50
2023-05-09T15:00:41.496Z,94403.72
2023-05-09T15:03:07.991Z,94405.31
2023-05-09T15:05:36.608Z,94408.91
2023-05-09T15:08:02.999Z,94408.09
2023-05-09T15:10:29.368Z,94405.66
2023-05-09T15:12:56.090Z,94404.84
2023-05-09T15:15:22.485Z,94409.38
2023-05-09T15:17:48.952Z,94402.69
2023-05-09T15:20:15.942Z,94402.03
2023-05-09T15:22:43.132Z,94402.69
2023-05-09T15:25:09.561Z,94406.78
2023-05-09T15:27:36.082Z,94414.03
2023-05-09T15:30:02.818Z,94410.44
2023-05-09T15:32:29.178Z,94406.00
2023-05-09T15:34:55.635Z,94405.72
2023-05-09T15:37:24.602Z,94407.44
2023-05-09T15:39:51.163Z,94411.34
2023-05-09T15:42:17.675Z,94414.78
2023-05-09T15:44:46.231Z,94416.97
2023-05-09T15:47:12.604Z,94404.59
2023-05-09T15:49:38.956Z,94417.72
2023-05-09T15:52:05.743Z,94423.84
2023-05-09T15:54:34.489Z,94425.53
2023-05-09T15:57:00.981Z,94410.81
2023-05-09T15:59:28.341Z,94418.50
2023-05-09T16:01:54.865Z,94420.97
2023-05-09T16:04:22.308Z,94423.56
2023-05-09T16:06:48.680Z,94424.00
2023-05-09T16:09:15.073Z,94428.69
2023-05-09T16:11:41.495Z,94420.22
2023-05-09T16:14:09.961Z,94421.16
2023-05-09T16:16:40.741Z,94420.56
2023-05-09T16:19:09.534Z,94430.09
2023-05-09T16:21:39.040Z,94423.34
2023-05-09T16:24:05.500Z,94418.03
2023-05-09T16:26:31.876Z,94413.94
2023-05-09T16:28:58.255Z,94417.28
2023-05-09T16:31:25.010Z,94414.66
2023-05-09T16:33:51.402Z,94415.75
2023-05-09T16:36:17.850Z,94406.69
2023-05-09T16:38:44.365Z,94414.03
2023-05-09T16:41:10.910Z,94414.19
2023-05-09T16:43:37.899Z,94413.56
2023-05-09T16:46:04.516Z,94413.34
2023-05-09T16:48:30.951Z,94399.88
2023-05-09T16:50:57.311Z,94410.56
2023-05-09T16:53:24.489Z,94407.66
2023-05-09T16:55:52.343Z,94412.75
2023-05-09T16:58:19.958Z,94404.53
2023-05-09T17:00:46.587Z,94402.56
2023-05-09T17:03:12.955Z,94402.63
2023-05-09T17:05:39.677Z,94405.97
2023-05-09T17:08:06.390Z,94407.41
2023-05-09T17:10:33.177Z,94402.75
2023-05-09T17:13:00.637Z,94404.84
2023-05-09T17:15:27.062Z,94413.47
2023-05-09T17:17:53.737Z,94405.28
2023-05-09T17:20:22.596Z,94401.09
2023-05-09T17:22:49.464Z,94408.94
2023-05-09T17:25:16.007Z,94394.84
2023-05-09T17:27:43.383Z,94402.06
2023-05-09T17:30:09.723Z,94401.69
2023-05-09T17:32:36.117Z,94407.22
2023-05-09T17:35:02.699Z,94396.56
2023-05-09T17:37:29.046Z,94404.13
2023-05-09T17:39:55.496Z,94402.50
2023-05-09T17:42:21.857Z,94410.69
2023-05-09T17:44:53.386Z,94404.22
2023-05-09T17:47:19.741Z,94408.25
2023-05-09T17:49:54.022Z,94404.56
2023-05-09T17:52:20.933Z,94404.56
2023-05-09T17:54:47.535Z,94404.78
2023-05-09T17:57:16.251Z,94407.88
2023-05-09T17:59:42.628Z,94407.91
2023-05-09T18:02:11.415Z,94415.19
2023-05-09T18:04:38.188Z,94405.38
2023-05-09T18:07:05.606Z,94413.56
2023-05-09T18:09:32.111Z,94420.50
2023-05-09T18:12:01.545Z,94414.00
2023-05-09T18:14:27.896Z,94425.50
2023-05-09T18:16:54.548Z,94426.75
2023-05-09T18:19:20.954Z,94431.25
2023-05-09T18:21:47.301Z,94439.66
2023-05-09T18:24:16.906Z,94444.84
2023-05-09T18:26:43.526Z,94448.72
2023-05-09T18:29:12.902Z,94450.25
2023-05-09T18:31:40.405Z,94455.56
2023-05-09T18:34:06.988Z,94459.84
2023-05-09T18:36:35.779Z,94458.47
2023-05-09T18:39:04.934Z,94463.41
2023-05-09T18:41:31.280Z,94465.22
2023-05-09T18:43:57.718Z,94468.50
2023-05-09T18:46:25.521Z,94471.16
2023-05-09T18:48:52.290Z,94469.94
2023-05-09T18:51:18.634Z,94462.16
2023-05-09T18:53:48.290Z,94464.56
2023-05-09T18:56:16.170Z,94461.91
2023-05-09T18:58:44.589Z,94470.69
2023-05-09T19:01:13.370Z,94468.84
2023-05-09T19:03:49.516Z,94470.91
2023-05-09T19:06:15.920Z,94472.34
2023-05-09T19:08:43.553Z,94471.09
2023-05-09T19:11:09.917Z,94467.19
2023-05-09T19:13:36.342Z,94464.31
2023-05-09T19:16:02.776Z,94467.59
2023-05-09T19:18:33.288Z,94472.53
2023-05-09T19:20:59.640Z,94463.31
2023-05-09T19:23:25.940Z,94461.25
2023-05-09T19:25:52.267Z,94465.81
2023-05-09T19:28:18.640Z,94464.56
2023-05-09T19:30:46.072Z,94470.94
2023-05-09T19:33:17.157Z,94464.19
2023-05-09T19:35:45.012Z,94462.75
2023-05-09T19:38:18.728Z,94467.03
2023-05-09T19:40:45.234Z,94473.56
2023-05-09T19:43:12.243Z,94464.97
2023-05-09T19:45:39.740Z,94473.75
2023-05-09T19:48:06.566Z,94468.44
2023-05-09T19:50:33.090Z,94473.38
2023-05-09T19:52:59.850Z,94479.28
2023-05-09T19:55:26.183Z,94478.47
2023-05-09T19:57:52.522Z,94480.97
2023-05-09T20:00:20.070Z,94485.84
2023-05-09T20:02:46.485Z,94492.41
2023-05-09T20:05:14.543Z,94485.84
2023-05-09T20:07:40.834Z,94485.84
2023-05-09T20:10:07.112Z,94494.25
2023-05-09T20:12:33.408Z,94499.38
2023-05-09T20:14:59.705Z,94502.22
2023-05-09T20:17:25.989Z,94485.28
2023-05-09T20:19:52.330Z,94490.97
2023-05-09T20:22:18.617Z,94489.97
2023-05-09T20:24:44.923Z,94497.34
2023-05-09T20:27:11.846Z,94496.28
2023-05-09T20:29:38.231Z,94500.66
2023-05-09T20:32:09.193Z,94504.75
2023-05-09T20:34:35.702Z,94505.53
2023-05-09T20:37:02.226Z,94508.81
2023-05-09T20:39:28.522Z,94511.72
2023-05-09T20:41:55.297Z,94509.25
2023-05-09T20:44:25.676Z,94511.28
2023-05-09T20:46:51.983Z,94507.25
2023-05-09T20:49:18.259Z,94515.00
2023-05-09T20:51:44.565Z,94521.72
2023-05-09T20:54:10.845Z,94518.44
2023-05-09T20:56:37.139Z,94517.63
2023-05-09T20:59:05.829Z,94521.91
2023-05-09T21:01:32.662Z,94514.56
2023-05-09T21:03:58.998Z,94514.78
2023-05-09T21:06:25.585Z,94523.34
2023-05-09T21:08:51.883Z,94535.00
2023-05-09T21:11:19.202Z,94534.16
2023-05-09T21:13:45.484Z,94529.28
2023-05-09T21:16:13.840Z,94534.00
2023-05-09T21:18:40.133Z,94539.91
2023-05-09T21:21:06.404Z,94542.56
2023-05-09T21:23:32.707Z,94540.94
2023-05-09T21:25:59.488Z,94544.41
2023-05-09T21:28:25.775Z,94533.56
2023-05-09T21:30:53.147Z,94539.53
2023-05-09T21:33:20.471Z,94538.69
2023-05-09T21:35:46.765Z,94539.91
2023-05-09T21:38:13.040Z,94543.41
2023-05-09T21:40:41.658Z,94549.31
2023-05-09T21:43:07.944Z,94547.47
2023-05-09T21:45:34.238Z,94541.97
2023-05-09T21:48:00.884Z,94543.81
2023-05-09T21:50:28.219Z,94555.06
2023-05-09T21:52:54.545Z,94556.50
2023-05-09T21:55:20.844Z,94561.19
2023-05-09T21:57:48.221Z,94559.16
2023-05-09T22:00:14.711Z,94555.25
2023-05-09T22:02:41.490Z,94565.28
2023-05-09T22:05:07.848Z,94562.19
2023-05-09T22:07:34.129Z,94560.94
2023-05-09T22:10:02.754Z,94563.56
2023-05-09T22:12:30.078Z,94565.59
2023-05-09T22:14:57.004Z,94572.16
2023-05-09T22:17:23.410Z,94575.03
2023-05-09T22:19:52.543Z,94562.34
2023-05-09T22:22:19.144Z,94570.91
2023-05-09T22:24:45.437Z,94561.16
2023-05-09T22:27:12.744Z,94573.41
2023-05-09T22:29:39.252Z,94570.97
2023-05-09T22:32:06.609Z,94565.25
2023-05-09T22:34:34.409Z,94566.28
2023-05-09T22:37:01.739Z,94569.34
2023-05-09T22:39:28.376Z,94575.25
2023-05-09T22:41:55.012Z,94576.72
2023-05-09T22:44:21.561Z,94579.16
2023-05-09T22:46:48.317Z,94585.88
2023-05-09T22:49:14.787Z,94575.09
2023-05-09T22:51:42.234Z,94574.47
2023-05-09T22:54:08.844Z,94572.22
2023-05-09T22:56:35.579Z,94575.28
2023-05-09T22:59:01.995Z,94584.47
2023-05-09T23:01:28.458Z,94581.22
2023-05-09T23:03:54.859Z,94581.38
2023-05-09T23:06:21.425Z,94583.88
2023-05-09T23:08:49.920Z,94579.16
2023-05-09T23:11:17.866Z,94580.38
2023-05-09T23:13:44.469Z,94571.81
2023-05-09T23:16:10.944Z,94583.66
2023-05-09T23:18:37.684Z,94576.09
2023-05-09T23:21:04.017Z,94582.22
2023-05-09T23:23:30.345Z,94574.28
2023-05-09T23:25:56.707Z,94572.22
2023-05-09T23:28:23.042Z,94571.41
2023-05-09T23:30:49.627Z,94564.47
2023-05-09T23:33:16.983Z,94572.22
2023-05-09T23:35:43.375Z,94561.56
2023-05-09T23:38:09.756Z,94560.97
2023-05-09T23:40:36.137Z,94563.63
2023-05-09T23:43:02.509Z,94559.97
2023-05-09T23:45:28.853Z,94562.41
2023-05-09T23:47:55.261Z,94558.53
2023-05-09T23:50:23.624Z,94562.41
2023-05-09T23:52:49.985Z,94550.94
2023-05-09T23:55:17.380Z,94547.66
2023-05-09T23:57:44.644Z,94549.31
